Main page
METAR-TAF:

METAR-TAF

Airports :

Silvio Pettirossi International Airport

Asunción, Paraguay

latitude: 25-16S, longitude: 057-38W, elevation: 101 m

Current weather observation

The report was made 12 minutes ago, at 21:00 UTC
Wind 2 kt from the West/Northwest
Temperature 18°C
Humidity 52%
Pressure 1017 hPa
Visibility 10 km or more
no clouds below 1500 m and no cumulonimbus

METAR: SGAS 202100Z 30002KT CAVOK 18/08 Q1017

Time: 17:12 (21:12 UTC)

Forecast

The report was made 4 hours and 12 minutes ago, at 17:00 UTC
Forecast valid from 20 at 18 UTC to 21 at 18 UTC
Wind 5 kt from the West
Visibility 10 km or more
Scattered clouds at a height of 3300 ft
From 20 at 2100 UTC
Wind 5 kt from the South
Visibility 10 km or more
no clouds below 1500 m and no cumulonimbus

TAF: SGAS 201700Z 2018/2118 28005KT 9999 SCT033 TX20/2019Z TN09/2109Z FM202100 18005KT CAVOK

Weather observations and forecasts of more than 4000 airports (METAR and TAF reports).

The available stations are represented by yellow and red dots on the map.

Hover mouse over dot to see the name of the station.

Then click to see weather observations and forecasts.

To change the map : click on the green buttons with a black cross to zoom in, on the green button with a dash to zoom out, or on the green arrows for adjacent maps.


METAR-TAF: